الصفحة الرئيسية
METAR-TAF:

METAR-TAF

مطار :

فور دو فرانس, مارتينيك

دائرة عرض: 14-36N, خط طول: 061-00W, ارتفاع: 5 متر

مراقبة الطقس الحالي

تاريخ ووقت الإصدار 22 دقيقة قبل الساعة 22:00UTC
ريح 5 عقدة من الشرق
درجة الحرارة 28°درجة مئوية
الرطوبة 66%
ضغط 1011 hPa
الرؤية 10 كم أو أكثر
غيوم قليلة على ارتفاع 2800 قدم

METAR: TFFF 222200Z AUTO 09005KT 9999 FEW028 28/21 Q1011 NOSIG

زمن: 18:22 (22:22 UTC)

توقعات

تاريخ ووقت الإصدار 6ساعات و 22 دقيقة قبل الساعة 16:00UTC
التوقعات صالحة من22 الساعة 18 UTC إلى 23 الساعة 18 UTC
ريح 12 عقدة من الشرق
الرؤية 10 كم أو أكثر
غيوم قليلة على ارتفاع 3300 قدم

TAF: TFFF 221600Z 2218/2318 10012KT 9999 FEW033

أرصاد الطقس والتوقعات من أكثر من 4000 مطار (تقارير الطقس للمطار METAR والتنبؤ بالطقس بالمطارTAF).

المحطات المتاحة هي النقط الصفراء والحمراء على الخريطة.

حرك المؤشر فوق النقطة لمعرفة اسم المحطة.

ثم انقر لمعرفة أرصاد وتوقعات الطقس.

لتغيير الخارطة: اضغط على الأزرار الخضراء مع رمز الصليب الأسود للتكبير. على الزر الأخضر مع شرطة للتصغير، أو على الأسهم الخضراء للخرائط المجاورة.


METAR-TAF: